createdAt,value
2019-04-06T00:09:08.912Z,6.04
2019-04-06T00:24:41.821Z,5.78
2019-04-06T00:40:16.134Z,5.48
2019-04-06T00:55:55.408Z,5.26
2019-04-06T01:11:25.000Z,5.06
2019-04-06T01:26:57.968Z,4.49
2019-04-06T01:42:31.111Z,4.10
2019-04-06T01:58:05.140Z,4.14
2019-04-06T02:13:38.875Z,3.61
2019-04-06T02:29:12.397Z,3.81
2019-04-06T02:44:46.573Z,4.10
2019-04-06T03:00:20.822Z,4.24
2019-04-06T03:15:53.803Z,3.97
2019-04-06T03:31:28.021Z,3.53
2019-04-06T03:47:02.024Z,3.12
2019-04-06T04:02:35.437Z,2.78
2019-04-06T04:18:08.581Z,2.71
2019-04-06T04:33:41.790Z,3.57
2019-04-06T04:49:15.388Z,5.91
2019-04-06T05:04:48.398Z,6.64
2019-04-06T05:20:23.954Z,6.73
2019-04-06T05:35:56.958Z,7.43
2019-04-06T05:51:30.141Z,6.59
2019-04-06T06:07:02.961Z,7.12
2019-04-06T06:22:36.234Z,7.66
2019-04-06T06:38:09.202Z,8.00
2019-04-06T06:53:42.352Z,9.29
2019-04-06T07:09:15.284Z,10.17
2019-04-06T07:24:48.437Z,11.64
2019-04-06T07:40:21.359Z,13.04
2019-04-06T07:55:54.819Z,13.64
2019-04-06T08:11:28.089Z,13.79
2019-04-06T08:27:01.560Z,14.29
2019-04-06T08:42:34.741Z,13.78
2019-04-06T08:58:07.827Z,13.74
2019-04-06T09:13:41.219Z,12.10
2019-04-06T09:29:22.987Z,13.59
2019-04-06T10:01:09.358Z,14.07
2019-04-06T10:16:45.711Z,14.41
2019-04-06T10:32:24.756Z,16.46
2019-04-06T10:47:59.882Z,15.43
2019-04-06T11:03:36.894Z,16.24
2019-04-06T11:35:25.271Z,15.07
2019-04-06T12:23:37.321Z,15.59
2019-04-06T12:39:26.430Z,14.82
2019-04-06T12:55:05.815Z,15.15
2019-04-06T13:27:00.949Z,15.21
2019-04-06T13:42:40.311Z,15.35
2019-04-06T13:58:17.230Z,15.51
2019-04-06T14:13:57.473Z,15.12
2019-04-06T14:29:52.955Z,14.78
2019-04-06T14:45:32.221Z,14.71
2019-04-06T15:01:08.510Z,14.66
2019-04-06T15:16:45.294Z,14.41
2019-04-06T15:32:22.497Z,14.44
2019-04-06T15:48:13.044Z,14.31
2019-04-06T16:03:55.263Z,14.15
2019-04-06T16:19:39.524Z,13.89
2019-04-06T16:51:32.777Z,12.83
2019-04-06T17:07:12.042Z,12.01
2019-04-06T17:22:47.768Z,11.74
2019-04-06T17:38:25.162Z,11.76
2019-04-06T17:54:17.592Z,11.73
2019-04-06T18:10:09.298Z,11.65
2019-04-06T18:25:42.441Z,11.60
2019-04-06T18:41:15.888Z,11.70
2019-04-06T18:56:48.752Z,11.87
2019-04-06T19:12:21.907Z,11.85
2019-04-06T19:27:55.148Z,11.63
2019-04-06T19:43:29.643Z,10.94
2019-04-06T19:59:03.261Z,10.61
2019-04-06T20:14:36.762Z,10.47
2019-04-06T20:30:09.740Z,10.31
2019-04-06T20:45:43.738Z,10.23
2019-04-06T21:01:16.898Z,10.17
2019-04-06T21:16:50.502Z,10.23
2019-04-06T21:32:23.114Z,10.36
2019-04-06T21:47:56.451Z,10.28
2019-04-06T22:03:29.318Z,10.20
2019-04-06T22:19:03.005Z,9.91
2019-04-06T22:34:40.223Z,9.81
2019-04-06T22:50:12.533Z,10.12
2019-04-06T23:05:47.956Z,10.42
2019-04-06T23:21:21.387Z,10.47
2019-04-06T23:36:55.771Z,10.46
2019-04-06T23:52:29.690Z,9.60
